createdAt,value
2023-02-27T00:01:34.661Z,102290.13
2023-02-27T00:04:01.807Z,102287.88
2023-02-27T00:06:28.763Z,102283.78
2023-02-27T00:08:55.228Z,102287.22
2023-02-27T00:11:22.024Z,102286.53
2023-02-27T00:13:48.429Z,102282.75
2023-02-27T00:16:14.891Z,102280.69
2023-02-27T00:18:41.309Z,102276.03
2023-02-27T00:21:07.765Z,102281.03
2023-02-27T00:23:34.220Z,102274.50
2023-02-27T00:26:01.062Z,102279.13
2023-02-27T00:28:28.484Z,102278.63
2023-02-27T00:30:54.925Z,102269.88
2023-02-27T00:33:22.334Z,102279.81
2023-02-27T00:35:59.263Z,102272.78
2023-02-27T00:38:27.605Z,102268.00
2023-02-27T00:40:56.003Z,102273.81
2023-02-27T00:43:22.383Z,102273.66
2023-02-27T00:45:49.670Z,102269.00
2023-02-27T00:48:16.338Z,102271.25
2023-02-27T00:50:43.456Z,102268.84
2023-02-27T00:53:10.004Z,102273.50
2023-02-27T00:55:36.400Z,102277.22
2023-02-27T00:58:02.955Z,102266.78
2023-02-27T01:00:29.761Z,102273.78
2023-02-27T01:02:56.278Z,102273.94
2023-02-27T01:05:23.517Z,102273.59
2023-02-27T01:07:50.133Z,102272.03
2023-02-27T01:10:16.654Z,102266.56
2023-02-27T01:12:43.179Z,102271.38
2023-02-27T01:15:11.304Z,102270.50
2023-02-27T01:17:37.741Z,102262.59
2023-02-27T01:20:05.601Z,102266.56
2023-02-27T01:22:33.325Z,102263.78
2023-02-27T01:25:00.628Z,102252.81
2023-02-27T01:27:27.570Z,102262.09
2023-02-27T01:29:53.965Z,102261.72
2023-02-27T01:32:20.494Z,102262.28
2023-02-27T01:34:48.110Z,102262.91
2023-02-27T01:37:14.515Z,102259.84
2023-02-27T01:39:42.705Z,102265.84
2023-02-27T01:42:27.442Z,102267.88
2023-02-27T01:45:17.046Z,102261.38
2023-02-27T01:47:48.394Z,102256.06
2023-02-27T01:50:16.723Z,102265.84
2023-02-27T01:52:45.543Z,102259.63
2023-02-27T01:55:13.982Z,102262.38
2023-02-27T01:57:42.850Z,102262.38
2023-02-27T02:00:09.881Z,102258.78
2023-02-27T02:02:42.261Z,102260.31
2023-02-27T02:05:09.514Z,102254.47
2023-02-27T02:07:40.718Z,102267.50
2023-02-27T02:10:08.001Z,102266.81
2023-02-27T02:12:36.884Z,102264.06
2023-02-27T02:15:05.046Z,102264.09
2023-02-27T02:17:47.938Z,102269.69
2023-02-27T02:20:23.528Z,102269.31
2023-02-27T02:23:13.443Z,102260.75
2023-02-27T02:26:01.083Z,102268.09
2023-02-27T02:29:07.243Z,102275.28
2023-02-27T02:31:58.865Z,102266.41
2023-02-27T02:34:59.084Z,102263.00
2023-02-27T02:38:01.160Z,102266.91
2023-02-27T02:40:45.175Z,102275.81
2023-02-27T02:43:25.355Z,102275.16
2023-02-27T02:46:19.994Z,102271.34
2023-02-27T02:48:58.767Z,102272.50
2023-02-27T02:51:38.089Z,102278.00
2023-02-27T02:54:12.624Z,102281.81
2023-02-27T02:56:46.625Z,102277.06
2023-02-27T02:59:18.646Z,102284.44
2023-02-27T03:01:52.687Z,102288.16
2023-02-27T03:04:38.236Z,102284.94
2023-02-27T03:07:28.502Z,102277.81
2023-02-27T03:10:11.614Z,102275.22
2023-02-27T03:12:42.278Z,102286.19
2023-02-27T03:15:20.918Z,102280.19
2023-02-27T03:17:54.148Z,102279.00
2023-02-27T03:20:25.055Z,102287.53
2023-02-27T03:22:56.211Z,102291.81
2023-02-27T03:25:27.009Z,102298.84
2023-02-27T03:28:00.028Z,102300.34
2023-02-27T03:30:37.516Z,102304.81
2023-02-27T03:33:17.044Z,102305.66
2023-02-27T03:35:53.150Z,102302.88
2023-02-27T03:38:33.899Z,102306.38
2023-02-27T03:41:28.911Z,102303.59
2023-02-27T03:44:20.853Z,102306.78
2023-02-27T03:46:47.340Z,102306.25
2023-02-27T03:49:13.967Z,102303.66
2023-02-27T03:51:40.424Z,102310.56
2023-02-27T03:54:12.912Z,102323.22
2023-02-27T03:57:00.569Z,102317.09
2023-02-27T03:59:28.176Z,102324.00
2023-02-27T04:01:56.970Z,102328.25
2023-02-27T04:04:25.391Z,102331.44
2023-02-27T04:07:37.894Z,102334.63
2023-02-27T04:10:22.876Z,102333.53
2023-02-27T04:13:34.330Z,102343.13
2023-02-27T04:16:16.933Z,102342.19
2023-02-27T04:19:16.780Z,102344.69
2023-02-27T04:22:10.649Z,102342.66
2023-02-27T04:24:58.973Z,102343.50
2023-02-27T04:27:41.391Z,102342.66
2023-02-27T04:30:29.656Z,102353.28
2023-02-27T04:33:09.300Z,102349.53
2023-02-27T04:35:58.445Z,102345.00
2023-02-27T04:38:38.878Z,102358.00
2023-02-27T04:41:15.430Z,102356.88
2023-02-27T04:43:43.875Z,102354.06
2023-02-27T04:46:14.694Z,102357.59
2023-02-27T04:48:55.189Z,102359.47
2023-02-27T04:51:29.037Z,102357.66
2023-02-27T04:54:01.702Z,102367.69
2023-02-27T04:56:32.718Z,102371.19
2023-02-27T04:59:03.275Z,102371.06
2023-02-27T05:01:37.606Z,102373.47
2023-02-27T05:04:07.240Z,102368.19
2023-02-27T05:06:37.728Z,102368.31
2023-02-27T05:09:38.391Z,102377.41
2023-02-27T05:12:22.918Z,102368.00
2023-02-27T05:14:59.478Z,102378.75
2023-02-27T05:17:30.813Z,102378.09
2023-02-27T05:19:57.770Z,102371.38
2023-02-27T05:22:58.784Z,102376.13
2023-02-27T05:25:45.287Z,102367.63
2023-02-27T05:28:24.337Z,102359.78
2023-02-27T05:31:12.693Z,102362.38
2023-02-27T05:33:55.946Z,102371.94
2023-02-27T05:36:30.492Z,102372.31
2023-02-27T05:39:00.813Z,102372.50
2023-02-27T05:41:36.780Z,102369.97
2023-02-27T05:44:12.731Z,102370.38
2023-02-27T05:46:45.977Z,102375.44
2023-02-27T05:49:57.534Z,102379.50
2023-02-27T05:52:26.604Z,102388.34
2023-02-27T05:55:11.504Z,102387.50
2023-02-27T05:57:44.013Z,102390.31
2023-02-27T06:00:35.328Z,102402.75
2023-02-27T06:03:01.855Z,102399.69
2023-02-27T06:05:29.174Z,102414.03
2023-02-27T06:07:55.699Z,102404.94
2023-02-27T06:10:22.273Z,102408.47
2023-02-27T06:12:48.975Z,102423.09
2023-02-27T06:15:17.357Z,102428.66
2023-02-27T06:17:43.783Z,102433.53
2023-02-27T06:20:10.960Z,102431.22
2023-02-27T06:22:37.357Z,102426.19
2023-02-27T06:25:04.240Z,102429.81
2023-02-27T06:27:30.639Z,102430.81
2023-02-27T06:29:57.659Z,102445.00
2023-02-27T06:32:25.666Z,102437.78
2023-02-27T06:34:53.293Z,102438.94
2023-02-27T06:37:19.770Z,102434.41
2023-02-27T06:39:46.156Z,102439.44
2023-02-27T06:42:12.999Z,102434.91
2023-02-27T06:44:39.437Z,102441.53
2023-02-27T06:47:05.840Z,102453.03
2023-02-27T06:49:32.374Z,102444.97
2023-02-27T06:51:58.752Z,102441.06
2023-02-27T06:54:25.179Z,102440.63
2023-02-27T06:56:51.907Z,102445.47
2023-02-27T06:59:18.316Z,102448.31
2023-02-27T07:01:44.768Z,102447.44
2023-02-27T07:04:15.030Z,102448.47
2023-02-27T07:07:34.312Z,102442.81
2023-02-27T07:09:28.266Z,102445.13
2023-02-27T07:11:54.720Z,102455.22
2023-02-27T07:14:21.165Z,102456.03
2023-02-27T07:16:50.897Z,102459.44
2023-02-27T07:19:18.549Z,102465.34
2023-02-27T07:21:44.987Z,102474.97
2023-02-27T07:24:11.638Z,102482.97
2023-02-27T07:26:38.054Z,102483.47
2023-02-27T07:29:04.911Z,102492.38
2023-02-27T07:31:31.449Z,102481.34
2023-02-27T07:33:57.889Z,102474.00
2023-02-27T07:36:24.321Z,102484.41
2023-02-27T07:38:50.754Z,102497.53
2023-02-27T07:41:29.505Z,102497.94
2023-02-27T07:43:59.030Z,102506.09
2023-02-27T07:46:27.469Z,102502.84
2023-02-27T07:48:54.467Z,102493.91
2023-02-27T07:51:20.890Z,102493.13
2023-02-27T07:53:47.280Z,102501.88
2023-02-27T07:56:13.934Z,102503.88
2023-02-27T07:58:40.365Z,102506.16
2023-02-27T08:01:06.751Z,102501.03
2023-02-27T08:03:33.229Z,102500.38
2023-02-27T08:06:02.097Z,102500.91
2023-02-27T08:08:29.557Z,102499.28
2023-02-27T08:10:55.940Z,102498.41
2023-02-27T08:13:42.301Z,102504.97
2023-02-27T08:16:09.113Z,102499.00
2023-02-27T08:18:35.538Z,102507.97
2023-02-27T08:21:04.949Z,102505.44
2023-02-27T08:23:32.444Z,102506.13
2023-02-27T08:25:58.847Z,102513.28
2023-02-27T08:28:25.445Z,102507.66
2023-02-27T08:30:51.879Z,102519.53
2023-02-27T08:33:18.285Z,102519.38
2023-02-27T08:35:44.763Z,102518.19
2023-02-27T08:38:11.219Z,102504.47
2023-02-27T08:40:37.632Z,102507.59
2023-02-27T08:43:04.031Z,102517.41
2023-02-27T08:45:30.746Z,102519.34
2023-02-27T08:47:57.203Z,102525.31
2023-02-27T08:50:23.770Z,102520.00
2023-02-27T08:52:50.207Z,102514.34
2023-02-27T08:55:16.640Z,102515.22
2023-02-27T08:57:43.105Z,102523.31
2023-02-27T09:00:14.502Z,102514.19
2023-02-27T09:02:41.395Z,102518.50
2023-02-27T09:05:08.227Z,102519.06
2023-02-27T09:07:34.663Z,102515.75
2023-02-27T09:10:01.111Z,102519.22
2023-02-27T09:12:27.532Z,102522.47
2023-02-27T09:14:53.955Z,102517.31
2023-02-27T09:17:20.574Z,102520.06
2023-02-27T09:19:47.306Z,102514.72
2023-02-27T09:22:13.724Z,102517.81
2023-02-27T09:24:40.135Z,102522.63
2023-02-27T09:27:06.562Z,102532.91
2023-02-27T09:29:33.039Z,102532.06
2023-02-27T09:31:59.550Z,102532.69
2023-02-27T09:34:26.082Z,102538.75
2023-02-27T09:36:52.621Z,102535.06
2023-02-27T09:39:19.056Z,102538.66
2023-02-27T09:41:53.406Z,102545.56
2023-02-27T09:44:45.311Z,102548.28
2023-02-27T09:47:38.404Z,102543.03
2023-02-27T09:50:37.045Z,102541.94
2023-02-27T09:53:06.226Z,102548.81
2023-02-27T09:55:38.625Z,102547.72
2023-02-27T09:58:25.770Z,102547.19
2023-02-27T10:01:09.022Z,102548.22
2023-02-27T10:04:00.378Z,102549.34
2023-02-27T10:06:38.067Z,102549.22
2023-02-27T10:09:40.828Z,102550.16
2023-02-27T10:12:52.606Z,102544.50
2023-02-27T10:15:26.416Z,102556.72
2023-02-27T10:18:16.884Z,102560.78
2023-02-27T10:21:05.807Z,102554.03
2023-02-27T10:23:50.875Z,102558.59
2023-02-27T10:26:30.150Z,102558.25
2023-02-27T10:29:14.364Z,102562.28
2023-02-27T10:31:41.813Z,102558.38
2023-02-27T10:34:12.990Z,102559.66
2023-02-27T10:36:41.050Z,102558.91
2023-02-27T10:39:10.911Z,102557.75
2023-02-27T10:41:39.760Z,102551.88
2023-02-27T10:44:06.334Z,102558.44
2023-02-27T10:46:36.405Z,102559.69
2023-02-27T10:49:18.753Z,102561.22
2023-02-27T10:51:46.994Z,102554.72
2023-02-27T10:54:19.395Z,102565.13
2023-02-27T10:56:50.515Z,102557.41
2023-02-27T10:59:18.463Z,102558.94
2023-02-27T11:01:53.190Z,102562.81
2023-02-27T11:04:38.686Z,102560.19
2023-02-27T11:07:12.045Z,102562.75
2023-02-27T11:09:38.482Z,102559.03
2023-02-27T11:12:28.753Z,102560.16
2023-02-27T11:14:57.498Z,102553.22
2023-02-27T11:17:30.359Z,102546.19
2023-02-27T11:19:58.153Z,102540.81
2023-02-27T11:22:27.258Z,102542.44
2023-02-27T11:25:20.812Z,102541.66
2023-02-27T11:27:48.427Z,102537.63
2023-02-27T11:30:28.378Z,102539.19
2023-02-27T11:32:57.296Z,102542.09
2023-02-27T11:35:26.698Z,102538.88
2023-02-27T11:37:56.131Z,102530.25
2023-02-27T11:40:30.031Z,102541.78
2023-02-27T11:43:01.867Z,102539.88
2023-02-27T11:46:11.365Z,102547.38
2023-02-27T11:48:25.361Z,102539.59
2023-02-27T11:51:11.657Z,102536.09
2023-02-27T11:53:52.453Z,102532.97
2023-02-27T11:56:24.994Z,102532.25
2023-02-27T11:59:15.612Z,102534.84
2023-02-27T12:01:53.443Z,102527.63
2023-02-27T12:04:26.944Z,102526.91
2023-02-27T12:07:03.775Z,102529.88
2023-02-27T12:09:39.797Z,102533.66
2023-02-27T12:12:21.336Z,102524.16
2023-02-27T12:15:02.548Z,102527.03
2023-02-27T12:17:52.848Z,102523.03
2023-02-27T12:20:24.862Z,102525.94
2023-02-27T12:22:54.056Z,102524.16
2023-02-27T12:25:34.734Z,102522.75
2023-02-27T12:28:14.979Z,102525.59
2023-02-27T12:30:50.074Z,102526.13
2023-02-27T12:33:38.226Z,102522.13
2023-02-27T12:36:09.772Z,102525.56
2023-02-27T12:38:37.038Z,102529.13
2023-02-27T12:41:27.494Z,102533.59
2023-02-27T12:44:21.414Z,102529.00
2023-02-27T12:46:58.735Z,102522.53
2023-02-27T12:49:38.481Z,102527.88
2023-02-27T12:52:20.050Z,102520.13
2023-02-27T12:54:55.845Z,102522.38
2023-02-27T12:57:39.193Z,102519.63
2023-02-27T13:00:19.202Z,102526.66
2023-02-27T13:02:56.166Z,102522.75
2023-02-27T13:05:46.307Z,102521.09
2023-02-27T13:08:43.119Z,102519.88
2023-02-27T13:11:40.762Z,102525.28
2023-02-27T13:14:16.322Z,102527.97
2023-02-27T13:16:47.420Z,102529.19
2023-02-27T13:19:13.744Z,102533.59
2023-02-27T13:21:51.813Z,102535.81
2023-02-27T13:24:26.302Z,102533.03
2023-02-27T13:27:07.606Z,102536.13
2023-02-27T13:30:01.275Z,102530.41
2023-02-27T13:32:44.145Z,102525.44
2023-02-27T13:35:23.132Z,102525.16
2023-02-27T13:37:53.677Z,102524.72
2023-02-27T13:40:37.755Z,102521.56
2023-02-27T13:43:25.552Z,102519.34
2023-02-27T13:45:54.731Z,102526.22
2023-02-27T13:48:33.324Z,102521.09
2023-02-27T13:51:01.367Z,102518.41
2023-02-27T13:53:29.501Z,102519.31
2023-02-27T13:56:17.442Z,102518.84
2023-02-27T13:58:44.489Z,102516.88
2023-02-27T14:01:18.611Z,102520.34
2023-02-27T14:03:56.650Z,102529.75
2023-02-27T14:06:25.727Z,102522.22
2023-02-27T14:09:05.310Z,102528.81
2023-02-27T14:11:41.035Z,102523.94
2023-02-27T14:14:28.683Z,102526.31
2023-02-27T14:16:56.337Z,102527.41
2023-02-27T14:19:22.810Z,102532.38
2023-02-27T14:22:01.136Z,102529.19
2023-02-27T14:24:41.393Z,102537.00
2023-02-27T14:27:21.085Z,102535.28
2023-02-27T14:29:48.691Z,102537.25
2023-02-27T14:32:21.658Z,102544.22
2023-02-27T14:34:49.440Z,102545.31
2023-02-27T14:37:21.611Z,102546.06
2023-02-27T14:39:49.229Z,102548.19
2023-02-27T14:42:39.566Z,102546.13
2023-02-27T14:45:14.500Z,102548.03
2023-02-27T14:47:41.342Z,102549.91
2023-02-27T14:50:23.305Z,102550.38
2023-02-27T14:52:49.913Z,102554.41
2023-02-27T14:55:29.843Z,102557.00
2023-02-27T14:58:17.690Z,102553.97
2023-02-27T15:00:50.474Z,102552.44
2023-02-27T15:03:26.059Z,102557.31
2023-02-27T15:05:57.531Z,102568.22
2023-02-27T15:08:26.565Z,102559.56
2023-02-27T15:10:55.125Z,102564.63
2023-02-27T15:13:29.659Z,102567.97
2023-02-27T15:16:24.014Z,102566.56
2023-02-27T15:18:53.846Z,102570.59
2023-02-27T15:21:22.597Z,102567.88
2023-02-27T15:24:03.707Z,102578.56
2023-02-27T15:26:37.628Z,102570.06
2023-02-27T15:29:06.092Z,102567.03
2023-02-27T15:31:32.761Z,102573.63
2023-02-27T15:34:01.476Z,102566.38
2023-02-27T15:36:32.300Z,102573.16
2023-02-27T15:39:12.080Z,102568.34
2023-02-27T15:41:38.916Z,102576.00
2023-02-27T15:44:05.699Z,102579.44
2023-02-27T15:46:33.068Z,102582.59
2023-02-27T15:48:59.781Z,102581.16
2023-02-27T15:51:28.742Z,102582.00
2023-02-27T15:53:58.961Z,102583.00
2023-02-27T15:56:34.231Z,102585.97
2023-02-27T15:59:01.458Z,102590.47
2023-02-27T16:01:32.270Z,102595.34
2023-02-27T16:04:01.997Z,102587.63
2023-02-27T16:06:32.264Z,102592.56
2023-02-27T16:09:06.937Z,102597.06
2023-02-27T16:11:37.456Z,102591.78
2023-02-27T16:14:05.910Z,102596.72
2023-02-27T16:16:35.976Z,102599.28
2023-02-27T16:19:22.648Z,102589.59
2023-02-27T16:22:10.784Z,102595.19
2023-02-27T16:24:37.193Z,102602.78
2023-02-27T16:27:03.949Z,102601.09
2023-02-27T16:29:35.198Z,102611.78
2023-02-27T16:32:02.954Z,102612.56
2023-02-27T16:34:47.563Z,102613.44
2023-02-27T16:37:36.837Z,102616.38
2023-02-27T16:40:13.043Z,102617.91
2023-02-27T16:42:40.519Z,102615.34
2023-02-27T16:45:08.207Z,102625.94
2023-02-27T16:47:34.610Z,102617.91
2023-02-27T16:50:01.155Z,102629.31
2023-02-27T16:52:27.598Z,102615.69
2023-02-27T16:54:53.999Z,102629.13
2023-02-27T16:57:24.746Z,102627.34
2023-02-27T16:59:51.320Z,102620.66
2023-02-27T17:02:19.194Z,102621.38
2023-02-27T17:04:47.856Z,102619.94
2023-02-27T17:07:16.832Z,102622.53
2023-02-27T17:09:46.953Z,102617.38
2023-02-27T17:12:13.619Z,102621.88
2023-02-27T17:14:40.059Z,102617.47
2023-02-27T17:17:06.700Z,102623.59
2023-02-27T17:19:33.370Z,102621.78
2023-02-27T17:21:59.749Z,102619.84
2023-02-27T17:24:26.255Z,102628.94
2023-02-27T17:26:52.732Z,102619.88
2023-02-27T17:29:19.205Z,102619.50
2023-02-27T17:31:45.900Z,102628.94
2023-02-27T17:34:12.341Z,102633.31
2023-02-27T17:36:38.805Z,102636.66
2023-02-27T17:39:05.348Z,102636.56
2023-02-27T17:41:32.941Z,102636.47
2023-02-27T17:44:01.781Z,102639.63
2023-02-27T17:46:31.091Z,102642.97
2023-02-27T17:49:00.333Z,102645.25
2023-02-27T17:51:28.551Z,102645.34
2023-02-27T17:53:55.307Z,102646.31
2023-02-27T17:56:21.980Z,102640.09
2023-02-27T17:58:48.398Z,102644.94
2023-02-27T18:01:20.394Z,102643.81
2023-02-27T18:03:47.647Z,102640.53
2023-02-27T18:06:14.647Z,102648.66
2023-02-27T18:08:41.213Z,102647.41
2023-02-27T18:11:12.790Z,102644.25
2023-02-27T18:13:40.086Z,102640.91
2023-02-27T18:16:07.140Z,102640.69
2023-02-27T18:18:38.172Z,102643.81
2023-02-27T18:21:12.053Z,102638.88
2023-02-27T18:23:38.818Z,102638.38
2023-02-27T18:26:05.767Z,102643.59
2023-02-27T18:28:32.754Z,102640.56
2023-02-27T18:30:59.215Z,102645.94
2023-02-27T18:33:25.843Z,102647.84
2023-02-27T18:35:52.282Z,102645.78
2023-02-27T18:38:18.748Z,102647.38
2023-02-27T18:40:45.218Z,102653.91
2023-02-27T18:43:13.683Z,102657.91
2023-02-27T18:45:40.762Z,102658.09
2023-02-27T18:48:07.559Z,102653.06
2023-02-27T18:50:34.315Z,102655.34
2023-02-27T18:53:00.695Z,102657.38
2023-02-27T18:55:27.100Z,102654.97
2023-02-27T18:57:53.488Z,102655.16
2023-02-27T19:00:21.660Z,102651.03
2023-02-27T19:02:48.121Z,102660.41
2023-02-27T19:05:14.775Z,102660.06
2023-02-27T19:07:42.290Z,102665.78
2023-02-27T19:10:09.844Z,102659.56
2023-02-27T19:12:36.259Z,102668.72
2023-02-27T19:15:02.731Z,102667.00
2023-02-27T19:17:29.149Z,102666.19
2023-02-27T19:19:55.527Z,102671.06
2023-02-27T19:22:22.111Z,102671.78
2023-02-27T19:24:49.727Z,102678.31
2023-02-27T19:27:17.143Z,102678.91
2023-02-27T19:29:43.588Z,102678.78
2023-02-27T19:32:10.069Z,102675.91
2023-02-27T19:34:36.485Z,102680.25
2023-02-27T19:37:02.976Z,102686.09
2023-02-27T19:39:29.379Z,102675.75
2023-02-27T19:41:56.468Z,102680.47
2023-02-27T19:44:23.357Z,102679.78
2023-02-27T19:46:51.866Z,102682.03
2023-02-27T19:49:19.768Z,102685.81
2023-02-27T19:51:46.167Z,102692.03
2023-02-27T19:54:13.785Z,102685.69
2023-02-27T19:56:40.183Z,102687.28
2023-02-27T19:59:06.664Z,102683.50
2023-02-27T20:01:36.247Z,102676.59
2023-02-27T20:04:03.403Z,102687.06
2023-02-27T20:06:31.695Z,102679.88
2023-02-27T20:08:58.849Z,102682.00
2023-02-27T20:11:29.807Z,102687.94
2023-02-27T20:13:56.330Z,102688.00
2023-02-27T20:16:23.914Z,102688.56
2023-02-27T20:18:51.371Z,102688.06
2023-02-27T20:21:20.945Z,102686.34
2023-02-27T20:23:48.723Z,102694.13
2023-02-27T20:26:31.191Z,102692.06
2023-02-27T20:29:04.354Z,102690.88
2023-02-27T20:31:32.476Z,102693.97
2023-02-27T20:34:01.119Z,102683.97
2023-02-27T20:36:28.081Z,102682.94
2023-02-27T20:38:54.492Z,102682.59
2023-02-27T20:41:23.006Z,102680.88
2023-02-27T20:43:49.679Z,102685.56
2023-02-27T20:46:19.442Z,102689.31
2023-02-27T20:48:46.492Z,102690.19
2023-02-27T20:51:22.140Z,102682.13
2023-02-27T20:53:51.380Z,102686.44
2023-02-27T20:56:22.866Z,102684.19
2023-02-27T20:58:49.780Z,102688.84
2023-02-27T21:01:17.339Z,102694.34
2023-02-27T21:03:45.626Z,102700.88
2023-02-27T21:06:14.997Z,102695.56
2023-02-27T21:08:45.600Z,102699.16
2023-02-27T21:11:18.767Z,102697.13
2023-02-27T21:13:46.838Z,102700.03
2023-02-27T21:16:15.168Z,102696.94
2023-02-27T21:18:42.830Z,102692.47
2023-02-27T21:21:13.236Z,102694.38
2023-02-27T21:23:42.488Z,102692.13
2023-02-27T21:26:17.862Z,102693.66
2023-02-27T21:28:47.831Z,102696.25
2023-02-27T21:31:19.490Z,102695.94
2023-02-27T21:33:45.995Z,102693.50
2023-02-27T21:36:12.521Z,102697.47
2023-02-27T21:38:39.349Z,102700.56
2023-02-27T21:41:11.889Z,102700.06
2023-02-27T21:43:40.324Z,102706.44
2023-02-27T21:46:09.511Z,102701.09
2023-02-27T21:48:36.126Z,102701.94
2023-02-27T21:51:03.133Z,102704.22
2023-02-27T21:53:29.718Z,102704.00
2023-02-27T21:56:01.581Z,102704.00
2023-02-27T21:58:27.972Z,102704.00
2023-02-27T22:00:54.386Z,102704.72
2023-02-27T22:03:20.812Z,102699.03
2023-02-27T22:05:47.196Z,102694.19
2023-02-27T22:08:13.604Z,102702.47
2023-02-27T22:10:45.779Z,102688.66
2023-02-27T22:13:14.133Z,102685.91
2023-02-27T22:15:41.502Z,102690.91
2023-02-27T22:18:08.786Z,102691.59
2023-02-27T22:20:38.020Z,102692.63
2023-02-27T22:23:04.607Z,102696.75
2023-02-27T22:25:31.780Z,102698.47
2023-02-27T22:27:59.573Z,102700.03
2023-02-27T22:30:27.277Z,102699.16
2023-02-27T22:32:54.612Z,102699.00
2023-02-27T22:35:23.920Z,102702.78
2023-02-27T22:37:50.350Z,102703.63
2023-02-27T22:40:20.312Z,102698.13
2023-02-27T22:42:48.033Z,102703.97
2023-02-27T22:45:14.867Z,102704.84
2023-02-27T22:47:41.275Z,102705.38
2023-02-27T22:50:08.344Z,102700.22
2023-02-27T22:52:36.186Z,102705.38
2023-02-27T22:55:03.396Z,102705.38
2023-02-27T22:57:29.848Z,102708.28
2023-02-27T22:59:56.245Z,102707.09
2023-02-27T23:02:23.177Z,102710.88
2023-02-27T23:04:49.581Z,102720.50
2023-02-27T23:07:16.470Z,102721.56
2023-02-27T23:09:43.773Z,102721.72
2023-02-27T23:12:10.294Z,102719.88
2023-02-27T23:14:36.708Z,102726.59
2023-02-27T23:17:03.110Z,102727.44
2023-02-27T23:19:29.925Z,102733.13
2023-02-27T23:21:56.345Z,102727.78
2023-02-27T23:24:22.773Z,102734.84
2023-02-27T23:26:52.340Z,102727.44
2023-02-27T23:29:19.470Z,102732.63
2023-02-27T23:31:45.961Z,102728.16
2023-02-27T23:34:12.443Z,102731.41
2023-02-27T23:36:39.355Z,102732.09
2023-02-27T23:39:06.835Z,102729.34
2023-02-27T23:41:33.917Z,102730.00
2023-02-27T23:44:01.527Z,102729.00
2023-02-27T23:46:30.305Z,102735.72
2023-02-27T23:48:58.649Z,102738.81
2023-02-27T23:51:25.300Z,102735.88
2023-02-27T23:53:52.536Z,102731.06
2023-02-27T23:56:26.629Z,102734.19
2023-02-27T23:58:55.032Z,102734.88
